sensor_id;sensor_type;location;lat;lon;timestamp;P1;durP1;ratioP1;P2;durP2;ratioP2
33138;SDS011;19501;50.948;5.316;2023-02-28T00:00:32;27.38;;;10.50;;
33138;SDS011;19501;50.948;5.316;2023-02-28T00:02:59;25.40;;;11.05;;
33138;SDS011;19501;50.948;5.316;2023-02-28T00:05:25;25.40;;;10.95;;
33138;SDS011;19501;50.948;5.316;2023-02-28T00:07:51;27.02;;;10.68;;
33138;SDS011;19501;50.948;5.316;2023-02-28T00:10:21;28.77;;;11.10;;
33138;SDS011;19501;50.948;5.316;2023-02-28T00:12:50;25.80;;;11.20;;
33138;SDS011;19501;50.948;5.316;2023-02-28T00:15:16;25.75;;;11.70;;
33138;SDS011;19501;50.948;5.316;2023-02-28T00:17:43;26.98;;;11.07;;
33138;SDS011;19501;50.948;5.316;2023-02-28T00:20:09;28.17;;;11.60;;
33138;SDS011;19501;50.948;5.316;2023-02-28T00:22:44;25.50;;;11.75;;
33138;SDS011;19501;50.948;5.316;2023-02-28T00:25:12;29.40;;;11.02;;
33138;SDS011;19501;50.948;5.316;2023-02-28T00:27:40;26.90;;;10.88;;
33138;SDS011;19501;50.948;5.316;2023-02-28T00:30:08;25.27;;;10.85;;
33138;SDS011;19501;50.948;5.316;2023-02-28T00:32:35;27.73;;;11.35;;
33138;SDS011;19501;50.948;5.316;2023-02-28T00:35:01;23.85;;;11.07;;
33138;SDS011;19501;50.948;5.316;2023-02-28T00:37:27;28.27;;;11.38;;
33138;SDS011;19501;50.948;5.316;2023-02-28T00:39:53;24.42;;;11.05;;
33138;SDS011;19501;50.948;5.316;2023-02-28T00:42:18;23.50;;;10.80;;
33138;SDS011;19501;50.948;5.316;2023-02-28T00:44:44;29.02;;;11.40;;
33138;SDS011;19501;50.948;5.316;2023-02-28T00:47:10;26.67;;;11.32;;
33138;SDS011;19501;50.948;5.316;2023-02-28T00:49:36;28.65;;;11.48;;
33138;SDS011;19501;50.948;5.316;2023-02-28T00:52:01;26.15;;;10.63;;
33138;SDS011;19501;50.948;5.316;2023-02-28T00:54:27;26.83;;;11.15;;
33138;SDS011;19501;50.948;5.316;2023-02-28T00:56:53;32.00;;;13.30;;
33138;SDS011;19501;50.948;5.316;2023-02-28T00:59:18;35.22;;;14.35;;
33138;SDS011;19501;50.948;5.316;2023-02-28T01:01:45;38.03;;;15.50;;
33138;SDS011;19501;50.948;5.316;2023-02-28T01:04:12;36.70;;;15.73;;
33138;SDS011;19501;50.948;5.316;2023-02-28T01:06:38;33.03;;;14.27;;
33138;SDS011;19501;50.948;5.316;2023-02-28T01:09:04;32.13;;;12.90;;
33138;SDS011;19501;50.948;5.316;2023-02-28T01:11:32;29.08;;;14.05;;
33138;SDS011;19501;50.948;5.316;2023-02-28T01:13:58;31.98;;;12.02;;
33138;SDS011;19501;50.948;5.316;2023-02-28T01:16:25;26.17;;;11.80;;
33138;SDS011;19501;50.948;5.316;2023-02-28T01:18:51;25.60;;;11.52;;
33138;SDS011;19501;50.948;5.316;2023-02-28T01:21:18;28.00;;;11.85;;
33138;SDS011;19501;50.948;5.316;2023-02-28T01:23:46;34.72;;;14.18;;
33138;SDS011;19501;50.948;5.316;2023-02-28T01:26:22;34.97;;;14.82;;
33138;SDS011;19501;50.948;5.316;2023-02-28T01:28:49;29.27;;;12.80;;
33138;SDS011;19501;50.948;5.316;2023-02-28T01:31:15;24.98;;;11.73;;
33138;SDS011;19501;50.948;5.316;2023-02-28T01:33:43;27.00;;;11.43;;
33138;SDS011;19501;50.948;5.316;2023-02-28T01:36:11;27.40;;;12.50;;
33138;SDS011;19501;50.948;5.316;2023-02-28T01:38:41;26.20;;;12.03;;
33138;SDS011;19501;50.948;5.316;2023-02-28T01:41:08;25.48;;;11.98;;
33138;SDS011;19501;50.948;5.316;2023-02-28T01:46:07;29.65;;;13.27;;
33138;SDS011;19501;50.948;5.316;2023-02-28T01:48:34;27.00;;;11.88;;
33138;SDS011;19501;50.948;5.316;2023-02-28T01:51:05;29.05;;;11.55;;
33138;SDS011;19501;50.948;5.316;2023-02-28T01:53:42;28.30;;;11.85;;
33138;SDS011;19501;50.948;5.316;2023-02-28T01:56:12;25.77;;;12.43;;
33138;SDS011;19501;50.948;5.316;2023-02-28T01:58:48;28.95;;;11.85;;
33138;SDS011;19501;50.948;5.316;2023-02-28T02:01:20;26.50;;;13.02;;
33138;SDS011;19501;50.948;5.316;2023-02-28T02:03:52;30.38;;;12.50;;
33138;SDS011;19501;50.948;5.316;2023-02-28T02:06:24;29.50;;;12.77;;
33138;SDS011;19501;50.948;5.316;2023-02-28T02:08:58;27.88;;;12.15;;
33138;SDS011;19501;50.948;5.316;2023-02-28T02:11:24;25.73;;;11.55;;
33138;SDS011;19501;50.948;5.316;2023-02-28T02:14:07;27.92;;;12.90;;
33138;SDS011;19501;50.948;5.316;2023-02-28T02:26:02;35.03;;;13.10;;
33138;SDS011;19501;50.948;5.316;2023-02-28T02:30:44;30.08;;;12.02;;
33138;SDS011;19501;50.948;5.316;2023-02-28T02:38:49;31.20;;;12.52;;
33138;SDS011;19501;50.948;5.316;2023-02-28T02:41:27;25.13;;;12.45;;
33138;SDS011;19501;50.948;5.316;2023-02-28T02:44:02;26.48;;;12.65;;
33138;SDS011;19501;50.948;5.316;2023-02-28T02:46:39;27.70;;;12.60;;
33138;SDS011;19501;50.948;5.316;2023-02-28T02:49:09;27.92;;;12.65;;
33138;SDS011;19501;50.948;5.316;2023-02-28T02:54:16;26.98;;;12.18;;
33138;SDS011;19501;50.948;5.316;2023-02-28T02:56:46;30.73;;;12.25;;
33138;SDS011;19501;50.948;5.316;2023-02-28T02:59:14;29.45;;;12.82;;
33138;SDS011;19501;50.948;5.316;2023-02-28T03:01:50;28.25;;;12.70;;
33138;SDS011;19501;50.948;5.316;2023-02-28T03:04:20;28.70;;;13.15;;
33138;SDS011;19501;50.948;5.316;2023-02-28T03:06:49;30.05;;;12.68;;
33138;SDS011;19501;50.948;5.316;2023-02-28T03:09:20;26.83;;;12.20;;
33138;SDS011;19501;50.948;5.316;2023-02-28T03:11:49;28.90;;;13.27;;
33138;SDS011;19501;50.948;5.316;2023-02-28T03:14:24;30.10;;;13.48;;
33138;SDS011;19501;50.948;5.316;2023-02-28T03:17:15;34.75;;;13.98;;
33138;SDS011;19501;50.948;5.316;2023-02-28T03:25:52;29.77;;;13.43;;
33138;SDS011;19501;50.948;5.316;2023-02-28T03:31:03;21.30;;;10.57;;
33138;SDS011;19501;50.948;5.316;2023-02-28T03:33:43;27.83;;;12.30;;
33138;SDS011;19501;50.948;5.316;2023-02-28T03:36:20;25.17;;;11.98;;
33138;SDS011;19501;50.948;5.316;2023-02-28T03:41:40;28.80;;;12.25;;
33138;SDS011;19501;50.948;5.316;2023-02-28T03:44:14;30.77;;;13.13;;
33138;SDS011;19501;50.948;5.316;2023-02-28T03:47:21;26.02;;;13.15;;
33138;SDS011;19501;50.948;5.316;2023-02-28T03:52:37;22.75;;;10.50;;
33138;SDS011;19501;50.948;5.316;2023-02-28T03:55:08;28.70;;;13.65;;
33138;SDS011;19501;50.948;5.316;2023-02-28T03:57:41;29.48;;;14.48;;
33138;SDS011;19501;50.948;5.316;2023-02-28T04:00:24;32.70;;;13.98;;
33138;SDS011;19501;50.948;5.316;2023-02-28T04:02:54;33.95;;;14.93;;
33138;SDS011;19501;50.948;5.316;2023-02-28T04:05:20;28.70;;;14.75;;
33138;SDS011;19501;50.948;5.316;2023-02-28T04:07:47;29.85;;;15.07;;
33138;SDS011;19501;50.948;5.316;2023-02-28T04:10:13;29.42;;;14.50;;
33138;SDS011;19501;50.948;5.316;2023-02-28T04:12:41;32.40;;;15.13;;
33138;SDS011;19501;50.948;5.316;2023-02-28T04:15:06;33.65;;;13.80;;
33138;SDS011;19501;50.948;5.316;2023-02-28T04:17:32;30.20;;;14.25;;
33138;SDS011;19501;50.948;5.316;2023-02-28T04:19:58;31.60;;;14.40;;
33138;SDS011;19501;50.948;5.316;2023-02-28T04:22:24;29.40;;;15.23;;
33138;SDS011;19501;50.948;5.316;2023-02-28T04:24:52;31.13;;;15.02;;
33138;SDS011;19501;50.948;5.316;2023-02-28T04:27:19;32.58;;;15.73;;
33138;SDS011;19501;50.948;5.316;2023-02-28T04:29:46;37.40;;;14.98;;
33138;SDS011;19501;50.948;5.316;2023-02-28T04:32:12;33.17;;;15.57;;
33138;SDS011;19501;50.948;5.316;2023-02-28T04:34:38;34.58;;;15.98;;
33138;SDS011;19501;50.948;5.316;2023-02-28T04:37:04;30.35;;;15.02;;
33138;SDS011;19501;50.948;5.316;2023-02-28T04:39:30;35.35;;;16.08;;
33138;SDS011;19501;50.948;5.316;2023-02-28T04:42:00;32.85;;;15.45;;
33138;SDS011;19501;50.948;5.316;2023-02-28T04:44:26;32.30;;;15.05;;
33138;SDS011;19501;50.948;5.316;2023-02-28T04:46:52;30.90;;;14.68;;
33138;SDS011;19501;50.948;5.316;2023-02-28T04:49:17;30.83;;;14.85;;
33138;SDS011;19501;50.948;5.316;2023-02-28T04:51:43;30.20;;;14.90;;
33138;SDS011;19501;50.948;5.316;2023-02-28T04:54:09;34.70;;;15.25;;
33138;SDS011;19501;50.948;5.316;2023-02-28T04:56:35;28.10;;;13.88;;
33138;SDS011;19501;50.948;5.316;2023-02-28T04:59:00;43.88;;;13.85;;
33138;SDS011;19501;50.948;5.316;2023-02-28T05:01:30;28.90;;;14.50;;
33138;SDS011;19501;50.948;5.316;2023-02-28T05:04:01;34.03;;;15.02;;
33138;SDS011;19501;50.948;5.316;2023-02-28T05:06:29;32.85;;;15.88;;
33138;SDS011;19501;50.948;5.316;2023-02-28T05:08:56;34.53;;;15.20;;
33138;SDS011;19501;50.948;5.316;2023-02-28T05:11:27;34.38;;;14.52;;
33138;SDS011;19501;50.948;5.316;2023-02-28T05:13:58;30.52;;;14.95;;
33138;SDS011;19501;50.948;5.316;2023-02-28T05:16:24;32.65;;;15.25;;
33138;SDS011;19501;50.948;5.316;2023-02-28T05:18:50;35.33;;;16.23;;
33138;SDS011;19501;50.948;5.316;2023-02-28T05:21:26;32.90;;;15.40;;
33138;SDS011;19501;50.948;5.316;2023-02-28T05:23:52;33.35;;;15.07;;
33138;SDS011;19501;50.948;5.316;2023-02-28T05:26:18;32.10;;;14.88;;
33138;SDS011;19501;50.948;5.316;2023-02-28T05:28:44;32.15;;;15.10;;
33138;SDS011;19501;50.948;5.316;2023-02-28T05:31:10;37.75;;;16.15;;
33138;SDS011;19501;50.948;5.316;2023-02-28T05:33:36;36.25;;;16.15;;
33138;SDS011;19501;50.948;5.316;2023-02-28T05:36:02;32.80;;;16.00;;
33138;SDS011;19501;50.948;5.316;2023-02-28T05:38:29;38.40;;;16.52;;
33138;SDS011;19501;50.948;5.316;2023-02-28T05:40:57;34.80;;;16.15;;
33138;SDS011;19501;50.948;5.316;2023-02-28T05:43:23;35.70;;;16.67;;
33138;SDS011;19501;50.948;5.316;2023-02-28T05:45:48;37.92;;;16.63;;
33138;SDS011;19501;50.948;5.316;2023-02-28T05:48:16;37.05;;;17.25;;
33138;SDS011;19501;50.948;5.316;2023-02-28T05:50:43;35.17;;;16.83;;
33138;SDS011;19501;50.948;5.316;2023-02-28T05:53:11;38.78;;;16.45;;
33138;SDS011;19501;50.948;5.316;2023-02-28T05:55:36;33.13;;;17.15;;
33138;SDS011;19501;50.948;5.316;2023-02-28T05:58:03;33.78;;;16.58;;
33138;SDS011;19501;50.948;5.316;2023-02-28T06:00:28;37.33;;;17.23;;
33138;SDS011;19501;50.948;5.316;2023-02-28T06:02:54;38.95;;;17.90;;
33138;SDS011;19501;50.948;5.316;2023-02-28T06:05:23;36.13;;;17.65;;
33138;SDS011;19501;50.948;5.316;2023-02-28T06:07:49;35.83;;;17.40;;
33138;SDS011;19501;50.948;5.316;2023-02-28T06:10:15;37.65;;;16.05;;
33138;SDS011;19501;50.948;5.316;2023-02-28T06:12:40;34.83;;;17.63;;
33138;SDS011;19501;50.948;5.316;2023-02-28T06:15:07;33.75;;;17.15;;
33138;SDS011;19501;50.948;5.316;2023-02-28T06:17:42;35.45;;;16.48;;
33138;SDS011;19501;50.948;5.316;2023-02-28T06:20:09;34.88;;;17.63;;
33138;SDS011;19501;50.948;5.316;2023-02-28T06:22:37;38.42;;;16.77;;
33138;SDS011;19501;50.948;5.316;2023-02-28T06:25:04;34.25;;;16.15;;
33138;SDS011;19501;50.948;5.316;2023-02-28T06:27:31;35.70;;;16.73;;
33138;SDS011;19501;50.948;5.316;2023-02-28T06:29:57;33.42;;;15.73;;
33138;SDS011;19501;50.948;5.316;2023-02-28T06:32:23;38.53;;;16.48;;
33138;SDS011;19501;50.948;5.316;2023-02-28T06:34:49;38.22;;;15.52;;
33138;SDS011;19501;50.948;5.316;2023-02-28T06:37:15;35.28;;;16.40;;
33138;SDS011;19501;50.948;5.316;2023-02-28T06:39:41;32.85;;;15.95;;
33138;SDS011;19501;50.948;5.316;2023-02-28T06:42:07;33.05;;;15.98;;
33138;SDS011;19501;50.948;5.316;2023-02-28T06:44:33;33.85;;;16.10;;
33138;SDS011;19501;50.948;5.316;2023-02-28T06:47:02;34.20;;;16.33;;
33138;SDS011;19501;50.948;5.316;2023-02-28T06:49:30;32.92;;;16.33;;
33138;SDS011;19501;50.948;5.316;2023-02-28T06:52:00;31.45;;;14.80;;
33138;SDS011;19501;50.948;5.316;2023-02-28T06:54:28;35.90;;;15.70;;
33138;SDS011;19501;50.948;5.316;2023-02-28T06:56:53;32.28;;;15.50;;
33138;SDS011;19501;50.948;5.316;2023-02-28T06:59:19;37.08;;;16.85;;
33138;SDS011;19501;50.948;5.316;2023-02-28T07:01:45;36.40;;;15.63;;
33138;SDS011;19501;50.948;5.316;2023-02-28T07:04:11;33.15;;;15.27;;
33138;SDS011;19501;50.948;5.316;2023-02-28T07:06:38;34.10;;;16.48;;
33138;SDS011;19501;50.948;5.316;2023-02-28T07:09:03;32.05;;;15.25;;
33138;SDS011;19501;50.948;5.316;2023-02-28T07:11:30;36.42;;;15.60;;
33138;SDS011;19501;50.948;5.316;2023-02-28T07:13:55;35.00;;;15.20;;
33138;SDS011;19501;50.948;5.316;2023-02-28T07:16:22;33.85;;;15.45;;
33138;SDS011;19501;50.948;5.316;2023-02-28T07:18:49;34.85;;;15.85;;
33138;SDS011;19501;50.948;5.316;2023-02-28T07:21:17;35.75;;;15.15;;
33138;SDS011;19501;50.948;5.316;2023-02-28T07:23:43;35.05;;;16.20;;
33138;SDS011;19501;50.948;5.316;2023-02-28T07:26:13;29.92;;;14.68;;
33138;SDS011;19501;50.948;5.316;2023-02-28T07:28:43;30.60;;;14.05;;
33138;SDS011;19501;50.948;5.316;2023-02-28T07:31:10;32.50;;;14.27;;
33138;SDS011;19501;50.948;5.316;2023-02-28T07:33:38;32.83;;;14.20;;
33138;SDS011;19501;50.948;5.316;2023-02-28T07:36:05;29.50;;;13.07;;
33138;SDS011;19501;50.948;5.316;2023-02-28T07:38:34;27.63;;;13.68;;
33138;SDS011;19501;50.948;5.316;2023-02-28T07:41:01;25.95;;;12.93;;
33138;SDS011;19501;50.948;5.316;2023-02-28T07:43:29;31.73;;;12.68;;
33138;SDS011;19501;50.948;5.316;2023-02-28T07:46:00;27.10;;;12.65;;
33138;SDS011;19501;50.948;5.316;2023-02-28T07:48:29;23.38;;;10.50;;
33138;SDS011;19501;50.948;5.316;2023-02-28T07:50:56;26.38;;;12.27;;
33138;SDS011;19501;50.948;5.316;2023-02-28T07:53:22;28.13;;;12.52;;
33138;SDS011;19501;50.948;5.316;2023-02-28T07:55:47;30.65;;;12.68;;
33138;SDS011;19501;50.948;5.316;2023-02-28T07:58:13;27.77;;;11.98;;
33138;SDS011;19501;50.948;5.316;2023-02-28T08:00:39;24.25;;;11.90;;
33138;SDS011;19501;50.948;5.316;2023-02-28T08:03:05;26.33;;;12.13;;
33138;SDS011;19501;50.948;5.316;2023-02-28T08:05:30;28.70;;;12.55;;
33138;SDS011;19501;50.948;5.316;2023-02-28T08:08:02;26.17;;;12.00;;
33138;SDS011;19501;50.948;5.316;2023-02-28T08:10:28;27.05;;;11.38;;
33138;SDS011;19501;50.948;5.316;2023-02-28T08:12:54;25.60;;;11.30;;
33138;SDS011;19501;50.948;5.316;2023-02-28T08:15:19;25.98;;;11.35;;
33138;SDS011;19501;50.948;5.316;2023-02-28T08:17:45;24.50;;;10.75;;
33138;SDS011;19501;50.948;5.316;2023-02-28T08:20:13;26.92;;;10.85;;
33138;SDS011;19501;50.948;5.316;2023-02-28T08:22:39;25.33;;;10.77;;
33138;SDS011;19501;50.948;5.316;2023-02-28T08:25:04;24.95;;;11.40;;
33138;SDS011;19501;50.948;5.316;2023-02-28T08:27:32;25.17;;;10.85;;
33138;SDS011;19501;50.948;5.316;2023-02-28T08:29:57;24.17;;;8.63;;
33138;SDS011;19501;50.948;5.316;2023-02-28T08:32:23;22.95;;;10.05;;
33138;SDS011;19501;50.948;5.316;2023-02-28T08:34:49;25.27;;;12.02;;
33138;SDS011;19501;50.948;5.316;2023-02-28T08:37:14;23.38;;;10.05;;
33138;SDS011;19501;50.948;5.316;2023-02-28T08:39:40;23.83;;;10.05;;
33138;SDS011;19501;50.948;5.316;2023-02-28T08:42:05;25.08;;;10.32;;
33138;SDS011;19501;50.948;5.316;2023-02-28T08:44:31;22.23;;;9.68;;
33138;SDS011;19501;50.948;5.316;2023-02-28T08:46:57;24.13;;;10.38;;
33138;SDS011;19501;50.948;5.316;2023-02-28T08:49:22;26.55;;;10.65;;
33138;SDS011;19501;50.948;5.316;2023-02-28T08:51:48;23.88;;;10.23;;
33138;SDS011;19501;50.948;5.316;2023-02-28T08:54:13;25.92;;;9.50;;
33138;SDS011;19501;50.948;5.316;2023-02-28T08:56:44;22.90;;;9.25;;
33138;SDS011;19501;50.948;5.316;2023-02-28T08:59:10;23.10;;;8.93;;
33138;SDS011;19501;50.948;5.316;2023-02-28T09:01:35;20.38;;;8.65;;
33138;SDS011;19501;50.948;5.316;2023-02-28T09:04:01;23.02;;;9.20;;
33138;SDS011;19501;50.948;5.316;2023-02-28T09:06:27;20.63;;;8.57;;
33138;SDS011;19501;50.948;5.316;2023-02-28T09:08:55;21.95;;;8.20;;
33138;SDS011;19501;50.948;5.316;2023-02-28T09:11:23;18.60;;;8.32;;
33138;SDS011;19501;50.948;5.316;2023-02-28T09:13:49;19.27;;;7.72;;
33138;SDS011;19501;50.948;5.316;2023-02-28T09:16:15;18.42;;;7.47;;
33138;SDS011;19501;50.948;5.316;2023-02-28T09:18:41;19.00;;;7.25;;
33138;SDS011;19501;50.948;5.316;2023-02-28T09:21:09;17.85;;;6.82;;
33138;SDS011;19501;50.948;5.316;2023-02-28T09:23:38;21.63;;;7.07;;
33138;SDS011;19501;50.948;5.316;2023-02-28T09:26:05;17.27;;;6.40;;
33138;SDS011;19501;50.948;5.316;2023-02-28T09:28:31;18.42;;;6.40;;
33138;SDS011;19501;50.948;5.316;2023-02-28T09:30:57;16.55;;;5.72;;
33138;SDS011;19501;50.948;5.316;2023-02-28T09:33:24;17.80;;;6.65;;
33138;SDS011;19501;50.948;5.316;2023-02-28T09:35:50;15.73;;;6.28;;
33138;SDS011;19501;50.948;5.316;2023-02-28T09:38:22;17.30;;;6.28;;
33138;SDS011;19501;50.948;5.316;2023-02-28T09:43:16;14.27;;;5.53;;
33138;SDS011;19501;50.948;5.316;2023-02-28T09:48:45;14.70;;;5.07;;
33138;SDS011;19501;50.948;5.316;2023-02-28T09:54:05;14.88;;;5.15;;
33138;SDS011;19501;50.948;5.316;2023-02-28T09:56:38;12.43;;;4.90;;
33138;SDS011;19501;50.948;5.316;2023-02-28T10:07:11;14.60;;;5.07;;
33138;SDS011;19501;50.948;5.316;2023-02-28T10:09:46;17.70;;;5.03;;
33138;SDS011;19501;50.948;5.316;2023-02-28T10:12:17;13.10;;;5.25;;
33138;SDS011;19501;50.948;5.316;2023-02-28T10:14:46;13.15;;;5.28;;
33138;SDS011;19501;50.948;5.316;2023-02-28T10:17:16;14.05;;;5.10;;
33138;SDS011;19501;50.948;5.316;2023-02-28T10:19:55;16.75;;;5.45;;
33138;SDS011;19501;50.948;5.316;2023-02-28T10:25:15;18.63;;;5.30;;
33138;SDS011;19501;50.948;5.316;2023-02-28T10:27:46;10.98;;;5.05;;
33138;SDS011;19501;50.948;5.316;2023-02-28T10:30:11;12.18;;;4.55;;
33138;SDS011;19501;50.948;5.316;2023-02-28T10:32:38;12.93;;;4.68;;
33138;SDS011;19501;50.948;5.316;2023-02-28T10:35:10;10.15;;;4.30;;
33138;SDS011;19501;50.948;5.316;2023-02-28T10:37:42;12.00;;;4.90;;
33138;SDS011;19501;50.948;5.316;2023-02-28T10:45:26;11.98;;;4.60;;
33138;SDS011;19501;50.948;5.316;2023-02-28T10:47:59;10.35;;;4.32;;
33138;SDS011;19501;50.948;5.316;2023-02-28T10:58:47;11.77;;;5.25;;
33138;SDS011;19501;50.948;5.316;2023-02-28T11:03:58;10.18;;;4.25;;
33138;SDS011;19501;50.948;5.316;2023-02-28T11:08:52;13.48;;;4.38;;
33138;SDS011;19501;50.948;5.316;2023-02-28T11:11:20;12.70;;;4.65;;
33138;SDS011;19501;50.948;5.316;2023-02-28T11:13:50;13.57;;;4.70;;
33138;SDS011;19501;50.948;5.316;2023-02-28T11:16:22;10.25;;;4.20;;
33138;SDS011;19501;50.948;5.316;2023-02-28T11:19:00;13.00;;;4.72;;
33138;SDS011;19501;50.948;5.316;2023-02-28T11:21:30;10.10;;;4.35;;
33138;SDS011;19501;50.948;5.316;2023-02-28T11:24:03;10.80;;;4.18;;
33138;SDS011;19501;50.948;5.316;2023-02-28T11:26:50;14.77;;;5.00;;
33138;SDS011;19501;50.948;5.316;2023-02-28T11:29:23;10.63;;;4.32;;
33138;SDS011;19501;50.948;5.316;2023-02-28T11:34:45;14.32;;;4.85;;
33138;SDS011;19501;50.948;5.316;2023-02-28T11:37:24;15.82;;;5.10;;
33138;SDS011;19501;50.948;5.316;2023-02-28T11:39:53;13.13;;;4.47;;
33138;SDS011;19501;50.948;5.316;2023-02-28T11:45:03;10.18;;;4.13;;
33138;SDS011;19501;50.948;5.316;2023-02-28T12:04:54;11.00;;;4.60;;
33138;SDS011;19501;50.948;5.316;2023-02-28T12:07:45;11.25;;;4.80;;
33138;SDS011;19501;50.948;5.316;2023-02-28T12:13:03;9.77;;;4.68;;
33138;SDS011;19501;50.948;5.316;2023-02-28T12:21:01;11.75;;;4.72;;
33138;SDS011;19501;50.948;5.316;2023-02-28T12:28:44;11.90;;;4.97;;
33138;SDS011;19501;50.948;5.316;2023-02-28T12:33:52;11.23;;;4.88;;
33138;SDS011;19501;50.948;5.316;2023-02-28T12:36:22;12.65;;;4.75;;
33138;SDS011;19501;50.948;5.316;2023-02-28T12:38:58;13.30;;;5.30;;
33138;SDS011;19501;50.948;5.316;2023-02-28T12:42:10;10.85;;;5.05;;
33138;SDS011;19501;50.948;5.316;2023-02-28T12:44:32;9.77;;;5.05;;
33138;SDS011;19501;50.948;5.316;2023-02-28T12:47:17;12.45;;;4.78;;
33138;SDS011;19501;50.948;5.316;2023-02-28T12:49:56;14.20;;;5.65;;
33138;SDS011;19501;50.948;5.316;2023-02-28T12:55:15;11.05;;;4.97;;
33138;SDS011;19501;50.948;5.316;2023-02-28T12:58:20;13.23;;;5.80;;
33138;SDS011;19501;50.948;5.316;2023-02-28T13:01:05;10.63;;;5.03;;
33138;SDS011;19501;50.948;5.316;2023-02-28T13:09:25;9.43;;;4.85;;
33138;SDS011;19501;50.948;5.316;2023-02-28T13:11:52;12.30;;;5.43;;
33138;SDS011;19501;50.948;5.316;2023-02-28T13:14:26;13.68;;;5.57;;
33138;SDS011;19501;50.948;5.316;2023-02-28T13:17:00;13.65;;;5.55;;
33138;SDS011;19501;50.948;5.316;2023-02-28T13:19:28;9.93;;;5.22;;
33138;SDS011;19501;50.948;5.316;2023-02-28T13:21:56;11.57;;;5.53;;
33138;SDS011;19501;50.948;5.316;2023-02-28T13:27:11;12.57;;;5.50;;
33138;SDS011;19501;50.948;5.316;2023-02-28T13:29:49;14.30;;;5.95;;
33138;SDS011;19501;50.948;5.316;2023-02-28T13:45:20;13.15;;;5.70;;
33138;SDS011;19501;50.948;5.316;2023-02-28T13:47:44;12.98;;;5.93;;
33138;SDS011;19501;50.948;5.316;2023-02-28T14:06:28;15.10;;;5.45;;
33138;SDS011;19501;50.948;5.316;2023-02-28T14:09:06;13.90;;;5.90;;
33138;SDS011;19501;50.948;5.316;2023-02-28T14:11:58;12.38;;;6.00;;
33138;SDS011;19501;50.948;5.316;2023-02-28T14:14:59;13.80;;;5.90;;
33138;SDS011;19501;50.948;5.316;2023-02-28T14:17:25;12.60;;;6.03;;
33138;SDS011;19501;50.948;5.316;2023-02-28T14:19:51;16.73;;;6.30;;
33138;SDS011;19501;50.948;5.316;2023-02-28T14:23:21;15.15;;;6.13;;
33138;SDS011;19501;50.948;5.316;2023-02-28T14:25:23;13.73;;;5.70;;
33138;SDS011;19501;50.948;5.316;2023-02-28T14:28:10;12.60;;;5.57;;
33138;SDS011;19501;50.948;5.316;2023-02-28T14:36:26;13.88;;;5.32;;
33138;SDS011;19501;50.948;5.316;2023-02-28T14:38:58;14.38;;;6.07;;
33138;SDS011;19501;50.948;5.316;2023-02-28T14:41:33;13.40;;;6.45;;
33138;SDS011;19501;50.948;5.316;2023-02-28T14:44:03;14.27;;;5.93;;
33138;SDS011;19501;50.948;5.316;2023-02-28T14:46:41;13.30;;;6.05;;
33138;SDS011;19501;50.948;5.316;2023-02-28T14:49:13;14.52;;;6.43;;
33138;SDS011;19501;50.948;5.316;2023-02-28T14:54:36;13.07;;;5.85;;
33138;SDS011;19501;50.948;5.316;2023-02-28T14:57:02;12.48;;;5.68;;
33138;SDS011;19501;50.948;5.316;2023-02-28T14:59:30;12.90;;;6.00;;
33138;SDS011;19501;50.948;5.316;2023-02-28T15:05:00;12.93;;;5.95;;
33138;SDS011;19501;50.948;5.316;2023-02-28T15:07:47;15.20;;;6.35;;
33138;SDS011;19501;50.948;5.316;2023-02-28T15:12:54;13.73;;;5.40;;
33138;SDS011;19501;50.948;5.316;2023-02-28T15:15:26;14.32;;;6.13;;
33138;SDS011;19501;50.948;5.316;2023-02-28T15:18:07;17.17;;;5.70;;
33138;SDS011;19501;50.948;5.316;2023-02-28T15:20:40;12.38;;;5.60;;
33138;SDS011;19501;50.948;5.316;2023-02-28T15:23:09;13.77;;;5.70;;
33138;SDS011;19501;50.948;5.316;2023-02-28T15:25:35;11.93;;;5.47;;
33138;SDS011;19501;50.948;5.316;2023-02-28T15:28:01;14.63;;;5.70;;
33138;SDS011;19501;50.948;5.316;2023-02-28T15:30:30;12.45;;;5.57;;
33138;SDS011;19501;50.948;5.316;2023-02-28T15:33:18;13.50;;;5.78;;
33138;SDS011;19501;50.948;5.316;2023-02-28T15:35:46;14.32;;;6.05;;
33138;SDS011;19501;50.948;5.316;2023-02-28T15:38:17;15.75;;;5.93;;
33138;SDS011;19501;50.948;5.316;2023-02-28T15:43:23;14.25;;;6.22;;
33138;SDS011;19501;50.948;5.316;2023-02-28T15:51:01;16.23;;;6.82;;
33138;SDS011;19501;50.948;5.316;2023-02-28T15:53:32;17.77;;;7.05;;
33138;SDS011;19501;50.948;5.316;2023-02-28T15:56:02;13.73;;;6.22;;
33138;SDS011;19501;50.948;5.316;2023-02-28T15:58:37;22.00;;;7.20;;
33138;SDS011;19501;50.948;5.316;2023-02-28T16:01:08;15.13;;;7.13;;
33138;SDS011;19501;50.948;5.316;2023-02-28T16:03:45;16.02;;;7.40;;
33138;SDS011;19501;50.948;5.316;2023-02-28T16:08:56;18.13;;;7.53;;
33138;SDS011;19501;50.948;5.316;2023-02-28T16:11:21;16.33;;;6.75;;
33138;SDS011;19501;50.948;5.316;2023-02-28T16:13:47;16.50;;;7.55;;
33138;SDS011;19501;50.948;5.316;2023-02-28T16:16:15;16.88;;;7.32;;
33138;SDS011;19501;50.948;5.316;2023-02-28T16:18:45;16.73;;;7.30;;
33138;SDS011;19501;50.948;5.316;2023-02-28T16:21:11;18.73;;;7.22;;
33138;SDS011;19501;50.948;5.316;2023-02-28T16:23:37;16.25;;;6.93;;
33138;SDS011;19501;50.948;5.316;2023-02-28T16:26:03;15.25;;;6.45;;
33138;SDS011;19501;50.948;5.316;2023-02-28T16:28:31;14.38;;;6.50;;
33138;SDS011;19501;50.948;5.316;2023-02-28T16:31:02;17.23;;;7.60;;
33138;SDS011;19501;50.948;5.316;2023-02-28T16:33:30;17.83;;;7.93;;
33138;SDS011;19501;50.948;5.316;2023-02-28T16:35:57;15.70;;;7.05;;
33138;SDS011;19501;50.948;5.316;2023-02-28T16:38:22;25.00;;;11.25;;
33138;SDS011;19501;50.948;5.316;2023-02-28T16:40:50;22.80;;;10.23;;
33138;SDS011;19501;50.948;5.316;2023-02-28T16:43:20;16.63;;;6.63;;
33138;SDS011;19501;50.948;5.316;2023-02-28T16:45:49;20.10;;;7.32;;
33138;SDS011;19501;50.948;5.316;2023-02-28T16:48:23;18.83;;;7.22;;
33138;SDS011;19501;50.948;5.316;2023-02-28T16:50:51;17.38;;;7.30;;
33138;SDS011;19501;50.948;5.316;2023-02-28T16:53:17;15.43;;;6.78;;
33138;SDS011;19501;50.948;5.316;2023-02-28T16:55:43;17.10;;;7.55;;
33138;SDS011;19501;50.948;5.316;2023-02-28T16:58:11;17.80;;;7.72;;
33138;SDS011;19501;50.948;5.316;2023-02-28T17:00:40;17.65;;;7.28;;
33138;SDS011;19501;50.948;5.316;2023-02-28T17:03:09;16.98;;;7.57;;
33138;SDS011;19501;50.948;5.316;2023-02-28T17:05:50;16.23;;;7.18;;
33138;SDS011;19501;50.948;5.316;2023-02-28T17:08:16;16.90;;;7.30;;
33138;SDS011;19501;50.948;5.316;2023-02-28T17:10:42;16.92;;;7.18;;
33138;SDS011;19501;50.948;5.316;2023-02-28T17:13:11;18.38;;;7.35;;
33138;SDS011;19501;50.948;5.316;2023-02-28T17:15:36;17.08;;;7.18;;
33138;SDS011;19501;50.948;5.316;2023-02-28T17:18:03;20.60;;;8.10;;
33138;SDS011;19501;50.948;5.316;2023-02-28T17:20:30;20.85;;;7.05;;
33138;SDS011;19501;50.948;5.316;2023-02-28T17:22:55;20.85;;;7.18;;
33138;SDS011;19501;50.948;5.316;2023-02-28T17:25:22;17.92;;;7.20;;
33138;SDS011;19501;50.948;5.316;2023-02-28T17:27:49;17.77;;;7.72;;
33138;SDS011;19501;50.948;5.316;2023-02-28T17:30:19;20.80;;;8.15;;
33138;SDS011;19501;50.948;5.316;2023-02-28T17:32:46;18.13;;;7.32;;
33138;SDS011;19501;50.948;5.316;2023-02-28T17:35:12;19.77;;;8.48;;
33138;SDS011;19501;50.948;5.316;2023-02-28T17:37:38;22.77;;;11.13;;
33138;SDS011;19501;50.948;5.316;2023-02-28T17:40:05;20.70;;;9.27;;